Bookmark and Share
Track history (hours):
 

Kaszuby

Last reported at 2014-Apr-17 02:15 UTC. Time now 2014-Apr-18 08:09 UTC.
Position N 49°42' W 003°39'.

Length 190 m; draft 9.8 m.

Type: Cargo ship. MMSI: 311005600.

NotesDate/timePositionNaut miles runAvg speedWind from/ knotsBaromVisibWave heightAir tempDewpointWater temp
2014-Apr-17 02:15N 49°42' W 003°39'1314.4
2014-Apr-17 01:21N 49°50' W 003°23'1114.3
2014-Apr-17 00:33N 49°55' W 003°07'1313.4
2014-Apr-16 23:33N 50°01' W 002°48'1212.1
2014-Apr-16 22:33N 50°04' W 002°30'1010.3
2014-Apr-16 21:33N 50°07' W 002°15'9 9.1
2014-Apr-16 20:33N 50°09' W 002°01'9 9.0
2014-Apr-16 19:33N 50°12' W 001°48'1010.3
2014-Apr-16 18:33N 50°15' W 001°32'1212.4
2014-Apr-16 17:33N 50°18' W 001°13'1514.7
2014-Apr-16 16:34N 50°22' W 000°51'1615.2
2014-Apr-16 15:32N 50°26' W 000°28'1514.6
2014-Apr-16 14:31N 50°30' W 000°05'1314.0
2014-Apr-16 13:33N 50°34' E 000°15'1312.9
2014-Apr-16 12:33N 50°38' E 000°34'1211.6
2014-Apr-16 11:33N 50°44' E 000°50'1111.3
2014-Apr-16 10:33N 50°51' E 001°03'1212.3
2014-Apr-16 09:34N 50°59' E 001°18'1515.1
2014-Apr-16 08:34N 51°09' E 001°37'1515.0
2014-Apr-16 07:34N 51°21' E 001°51'1413.3
2014-Apr-16 06:32N 51°32' E 002°03'1312.5
2014-Apr-16 05:32N 51°41' E 002°17'4511.0
2014-Apr-16 01:28N 52°15' E 003°03'1211.7
2014-Apr-16 00:27N 52°25' E 003°15'7512.7
2014-Apr-15 18:32N 53°24' E 004°32'1211.5
2014-Apr-15 17:31N 53°35' E 004°39'30810.3
2014-Apr-14 11:32N 57°49' E 009°49'1111.6
2014-Apr-14 10:33N 57°48' E 010°11'1111.3
2014-Apr-14 09:33N 57°48' E 010°32'1110.8
2014-Apr-14 08:33N 57°45' E 010°51'1211.8
2014-Apr-14 07:33N 57°37' E 011°08'1212.3
2014-Apr-14 06:33N 57°29' E 011°24'1212.3
2014-Apr-14 05:33N 57°17' E 011°33'15811.0
2014-Apr-13 15:12N 54°41' E 010°57'710.8
2014-Apr-13 14:33N 54°37' E 011°08'1110.8
2014-Apr-13 13:33N 54°32' E 011°25'1111.1
2014-Apr-13 12:33N 54°28' E 011°42'1111.5
2014-Apr-13 11:33N 54°27' E 012°02'9 9.1
2014-Apr-13 10:33N 54°32' E 012°14'1110.8
2014-Apr-13 09:33N 54°40' E 012°27'1212.2
2014-Apr-13 08:33N 54°47' E 012°45'1211.8
2014-Apr-13 07:33N 54°47' E 013°05'1211.7
2014-Apr-13 06:33N 54°46' E 013°26'1111.3
2014-Apr-13 05:33N 54°44' E 013°45'1211.8
2014-Apr-13 04:33N 54°41' E 014°04'1212.3
2014-Apr-13 03:33N 54°38' E 014°25'10212.5
2014-Apr-12 19:23N 54°55' E 017°20'1112.5
2014-Apr-12 18:28N 54°58' E 017°39'1112.5
2014-Apr-12 17:34N 54°58' E 017°59'1212.2
2014-Apr-12 16:33N 54°58' E 018°20'1212.3
2014-Apr-12 15:33N 54°56' E 018°41'1313.1
2014-Apr-12 14:33N 54°49' E 019°00'1212.0
2014-Apr-12 13:34N 54°37' E 018°55'1010.3
2014-Apr-12 12:33N 54°32' E 018°39'4 3.8
2014-Apr-12 11:33N 54°32' E 018°33'1 0.5
2014-Apr-12 10:31N 54°32' E 018°32'0 0.0
2014-Apr-12 09:31N 54°32' E 018°32'0 0.0
2014-Apr-12 08:31N 54°32' E 018°32'0 0.0
2014-Apr-12 07:31N 54°32' E 018°32'0 0.0
2014-Apr-12 06:31N 54°32' E 018°32'0 0.0
2014-Apr-12 05:31N 54°32' E 018°32'0 0.0
2014-Apr-12 04:31N 54°32' E 018°32'0 0.0
2014-Apr-12 03:31N 54°32' E 018°32'0 0.0
2014-Apr-12 02:31N 54°32' E 018°32'0 0.0
2014-Apr-12 01:31N 54°32' E 018°32'0 0.0
2014-Apr-12 00:31N 54°32' E 018°32'0 0.0
2014-Apr-11 23:31N 54°32' E 018°32'0 0.0
2014-Apr-11 22:31N 54°32' E 018°32'0 0.0
2014-Apr-11 21:31N 54°32' E 018°32'0 0.0
2014-Apr-11 20:31N 54°32' E 018°32'0 0.0
2014-Apr-11 19:31N 54°32' E 018°32'0 0.0
2014-Apr-11 18:31N 54°32' E 018°32'0 0.0
2014-Apr-11 17:31N 54°32' E 018°32'0 0.0
2014-Apr-11 16:31N 54°32' E 018°32'0 0.0
2014-Apr-11 15:31N 54°32' E 018°32'0 0.0
2014-Apr-11 14:31N 54°32' E 018°32'0 0.0
2014-Apr-11 13:31N 54°32' E 018°32'0 0.0
2014-Apr-11 12:32N 54°32' E 018°32'0 0.0
2014-Apr-11 11:32N 54°32' E 018°32'0 0.0
2014-Apr-11 10:32N 54°32' E 018°32'0 0.0
2014-Apr-11 09:32N 54°32' E 018°32'0 0.1
2014-Apr-11 08:32N 54°32' E 018°32'0 0.1
2014-Apr-11 07:32N 54°32' E 018°32'0 0.0
2014-Apr-11 06:32N 54°32' E 018°32'0 0.0
2014-Apr-11 05:32N 54°32' E 018°32'0 0.0
2014-Apr-11 04:32N 54°32' E 018°32'0 0.0
2014-Apr-11 03:32N 54°32' E 018°32'0 0.0
2014-Apr-11 02:32N 54°32' E 018°32'0 0.0
2014-Apr-11 01:32N 54°32' E 018°32'0 0.0
2014-Apr-11 00:32N 54°32' E 018°32'0 0.0
2014-Apr-10 23:32N 54°32' E 018°32'0 0.0
2014-Apr-10 22:32N 54°32' E 018°32'0 0.0
2014-Apr-10 21:32N 54°32' E 018°32'0 0.0
2014-Apr-10 20:32N 54°32' E 018°32'0 0.1
2014-Apr-10 19:32N 54°32' E 018°32'0 0.1
2014-Apr-10 18:32N 54°32' E 018°32'0 0.0
2014-Apr-10 17:32N 54°32' E 018°32'0 0.0
2014-Apr-10 16:32N 54°32' E 018°32'0 0.0
2014-Apr-10 15:32N 54°32' E 018°32'0 0.0
2014-Apr-10 14:32N 54°32' E 018°32'0 0.0
2014-Apr-10 13:32N 54°32' E 018°32'0 0.0
2014-Apr-10 12:32N 54°32' E 018°32'0 0.0
2014-Apr-10 11:32N 54°32' E 018°32'0 0.0
2014-Apr-10 10:32N 54°32' E 018°32'0 0.0
2014-Apr-10 09:32N 54°32' E 018°32'0 0.0
2014-Apr-10 08:32N 54°32' E 018°32'0 0.0
2014-Apr-10 07:32N 54°32' E 018°32'0 0.0
2014-Apr-10 06:32N 54°32' E 018°32'0 0.0
2014-Apr-10 05:32N 54°32' E 018°32'0 0.0
2014-Apr-10 04:32N 54°32' E 018°32'0 0.0
2014-Apr-10 03:32N 54°32' E 018°32'0 0.0
2014-Apr-10 02:32N 54°32' E 018°32'0 0.0
2014-Apr-10 01:32N 54°32' E 018°32'0 0.0
2014-Apr-10 00:32N 54°32' E 018°32'0 0.0
2014-Apr-09 23:32N 54°32' E 018°32'0 0.0
2014-Apr-09 22:32N 54°32' E 018°32'0 0.0
2014-Apr-09 21:32N 54°32' E 018°32'0 0.0
2014-Apr-09 20:32N 54°32' E 018°32'0 0.1
2014-Apr-09 19:32N 54°32' E 018°32'0 0.1
2014-Apr-09 18:32N 54°32' E 018°32'0 0.0
2014-Apr-09 17:32N 54°32' E 018°32'0 0.0
2014-Apr-09 16:32N 54°32' E 018°32'0 0.0
2014-Apr-09 15:32N 54°32' E 018°32'0 0.0
2014-Apr-09 14:32N 54°32' E 018°32'0 0.0
2014-Apr-09 13:32N 54°32' E 018°32'0 0.0
2014-Apr-09 12:32N 54°32' E 018°32'0 0.0
2014-Apr-09 11:32N 54°32' E 018°32'0 0.0
2014-Apr-09 10:32N 54°32' E 018°32'0 0.0
2014-Apr-09 09:32N 54°32' E 018°32'0 0.0
2014-Apr-09 08:32N 54°32' E 018°32'0 0.0
2014-Apr-09 07:32N 54°32' E 018°32'0 0.0
2014-Apr-09 06:32N 54°32' E 018°32'0 0.0
2014-Apr-09 05:32N 54°32' E 018°32'0 0.0
2014-Apr-09 04:32N 54°32' E 018°32'0 0.0
2014-Apr-09 03:32N 54°32' E 018°32'0 0.0
2014-Apr-09 02:32N 54°32' E 018°32'0 0.1
2014-Apr-09 01:32N 54°32' E 018°32'0 0.0
2014-Apr-09 00:32N 54°32' E 018°32'0 0.0
2014-Apr-08 23:32N 54°32' E 018°32'0 0.0
2014-Apr-08 22:32N 54°32' E 018°32'0 0.0
2014-Apr-08 21:32N 54°32' E 018°32'0 0.0
2014-Apr-08 20:32N 54°32' E 018°32'0 0.0
2014-Apr-08 19:32N 54°32' E 018°32'0 0.0
2014-Apr-08 18:32N 54°32' E 018°32'0 0.0
2014-Apr-08 17:32N 54°32' E 018°32'0 0.0
2014-Apr-08 16:32N 54°32' E 018°32'0 0.0
2014-Apr-08 15:32N 54°32' E 018°32'0 0.0
2014-Apr-08 14:32N 54°32' E 018°32'0 0.0
2014-Apr-08 13:32N 54°32' E 018°32'0 0.0
2014-Apr-08 12:32N 54°32' E 018°32'0 0.0
2014-Apr-08 11:32N 54°32' E 018°32'0 0.0
2014-Apr-08 10:32N 54°32' E 018°32'0 0.0
2014-Apr-08 09:32N 54°32' E 018°32'0 0.0
2014-Apr-08 08:32N 54°32' E 018°32'0 0.0
2014-Apr-08 07:32N 54°32' E 018°32'0 0.0
2014-Apr-08 06:32N 54°32' E 018°32'0 0.0
2014-Apr-08 05:32N 54°32' E 018°32'0 0.0
2014-Apr-08 04:32N 54°32' E 018°32'0 0.0
2014-Apr-08 03:32N 54°32' E 018°32'0 0.0
2014-Apr-08 02:32N 54°32' E 018°32'0 0.0
2014-Apr-08 01:32N 54°32' E 018°32'0 0.0
2014-Apr-08 00:32N 54°32' E 018°32'0 0.0
2014-Apr-07 23:32N 54°32' E 018°32'0 0.0
2014-Apr-07 22:32N 54°32' E 018°32'0 0.0
2014-Apr-07 21:32N 54°32' E 018°32'0 0.0
2014-Apr-07 20:32N 54°32' E 018°32'0 0.0
2014-Apr-07 19:32N 54°32' E 018°32'0 0.0
2014-Apr-07 17:32N 54°32' E 018°32'0 0.0
2014-Apr-07 16:32N 54°32' E 018°32'0 0.0
2014-Apr-07 15:32N 54°32' E 018°32'0 0.0
2014-Apr-07 14:32N 54°32' E 018°32'0 0.0
2014-Apr-07 13:32N 54°32' E 018°32'0 0.0
2014-Apr-07 12:32N 54°32' E 018°32'0 0.0
2014-Apr-07 11:32N 54°32' E 018°32'0 0.0
2014-Apr-07 10:32N 54°32' E 018°32'0 0.0
2014-Apr-07 09:32N 54°32' E 018°32'0 0.0
2014-Apr-07 08:32N 54°32' E 018°32'0 0.0
2014-Apr-07 07:32N 54°32' E 018°32'0 0.0
2014-Apr-07 06:32N 54°32' E 018°32'0 0.0
2014-Apr-07 05:32N 54°32' E 018°32'0 0.0
2014-Apr-07 04:29N 54°32' E 018°32'0 0.0
2014-Apr-07 03:32N 54°32' E 018°32'0 0.0
2014-Apr-07 02:32N 54°32' E 018°32'  

Dump ship's entire track history

sailing weather and tide predictions

Kaszuby — C6XD6 — position and weather